Terminal Aerodrome Forecast
Issued by NWS Lake Charles, LA

Home | Current Version | Previous Version | Text Only | Print | Product List | Glossary On
Versions: 1 2 3 4 5 6 7 8 9 10 11 12 13
000
FTUS44 KLCH 201725
TAFBPT
TAF
KBPT 201725Z 2018/2118 15012G20KT P6SM VCSH SCT025 BKN035
      TEMPO 2020/2024 OVC025
     FM210000 15010KT P6SM OVC015
     FM210600 15008KT 4SM BR OVC007
      TEMPO 2110/2114 2SM BR OVC004
     FM211500 15012G20KT P6SM OVC015=

USA.gov is the U.S. government's official web portal to all federal, state and local government web resources and services.